Time;durP1;ratioP1;P1;durP2;ratioP2;P2;SDS_P1;SDS_P2;PMS_P1;PMS_P2;Temp;Humidity;BMP_temperature;BMP_pressure;BME280_temperature;BME280_humidity;BME280_pressure;Samples;Min_cycle;Max_cycle;Signal;HPM_P1;HPM_P2
2022/03/03 00:01:17;;;;;;;24.13;15.65;;;;;;;1.03;68.96;101407.22;5005543;28;20424;-79
2022/03/03 00:03:43;;;;;;;25.30;15.57;;;;;;;0.94;68.94;101403.38;5016785;28;20081;-78
2022/03/03 00:06:11;;;;;;;24.40;15.57;;;;;;;0.99;68.93;101395.41;5005679;28;20125;-78
2022/03/03 00:08:38;;;;;;;23.45;16.13;;;;;;;0.99;68.74;101403.13;5009899;28;20054;-78
2022/03/03 00:11:05;;;;;;;24.98;15.50;;;;;;;0.91;68.48;101403.53;5012763;28;20057;-79
2022/03/03 00:13:31;;;;;;;26.48;16.63;;;;;;;0.89;68.43;101399.38;5002489;28;20223;-79
2022/03/03 00:15:59;;;;;;;23.92;15.23;;;;;;;0.86;67.81;101404.66;5017411;28;20160;-78
2022/03/03 00:18:25;;;;;;;24.17;16.52;;;;;;;0.80;68.02;101400.66;5012483;28;20046;-78
2022/03/03 00:20:52;;;;;;;27.02;16.83;;;;;;;0.77;68.60;101403.38;5030279;28;20111;-80
2022/03/03 00:23:20;;;;;;;24.92;16.15;;;;;;;0.77;69.02;101400.78;5004340;28;20571;-79
2022/03/03 00:25:47;;;;;;;26.38;15.98;;;;;;;0.66;69.17;101397.91;5015253;28;20187;-79
2022/03/03 00:28:14;;;;;;;24.65;16.08;;;;;;;0.60;69.99;101398.19;5003766;28;20082;-79
2022/03/03 00:30:40;;;;;;;27.08;15.57;;;;;;;0.66;70.27;101403.03;5008834;28;20082;-78
2022/03/03 00:33:07;;;;;;;25.92;16.23;;;;;;;0.51;69.46;101399.47;5010560;28;20077;-77
2022/03/03 00:35:33;;;;;;;24.45;15.55;;;;;;;0.58;70.43;101394.84;5016728;28;20060;-78
2022/03/03 00:38:00;;;;;;;27.85;16.15;;;;;;;0.64;69.40;101389.41;5018008;28;20056;-78
2022/03/03 00:40:28;;;;;;;25.23;16.65;;;;;;;0.59;70.73;101389.63;5017841;28;20054;-78
2022/03/03 00:42:55;;;;;;;28.08;15.95;;;;;;;0.47;69.64;101382.50;5017644;28;20053;-79
2022/03/03 00:45:22;;;;;;;23.75;15.80;;;;;;;0.51;70.48;101390.91;5017343;28;20168;-79
2022/03/03 00:47:49;;;;;;;27.33;16.30;;;;;;;0.47;70.88;101381.69;5018266;28;20161;-78
2022/03/03 00:50:15;;;;;;;23.77;16.42;;;;;;;0.45;72.39;101380.91;5017879;28;20074;-78
2022/03/03 00:52:42;;;;;;;24.77;16.70;;;;;;;0.41;71.06;101387.94;5018642;28;20129;-79
2022/03/03 00:55:09;;;;;;;23.73;16.42;;;;;;;0.40;71.83;101386.28;5018382;28;20140;-79
2022/03/03 00:57:37;;;;;;;23.15;16.50;;;;;;;0.39;71.65;101378.63;5018838;28;20114;-78
2022/03/03 01:00:07;;;;;;;27.85;16.33;;;;;;;0.31;71.61;101381.56;5019488;28;20050;-78
2022/03/03 01:02:34;;;;;;;25.60;16.02;;;;;;;0.33;70.76;101383.16;5020365;28;20132;-78
2022/03/03 01:05:01;;;;;;;24.42;16.05;;;;;;;0.26;72.01;101376.63;5019768;28;20497;-79
2022/03/03 01:07:27;;;;;;;27.48;15.25;;;;;;;0.27;71.36;101380.88;5018690;28;20129;-79
2022/03/03 01:09:54;;;;;;;22.55;16.17;;;;;;;0.24;71.73;101377.59;5017804;28;20501;-79
2022/03/03 01:12:21;;;;;;;25.23;16.50;;;;;;;0.19;71.79;101377.81;5016444;28;20136;-78
2022/03/03 01:14:49;;;;;;;26.75;16.73;;;;;;;0.09;72.89;101376.56;5017485;28;20058;-79
2022/03/03 01:17:16;;;;;;;26.02;16.63;;;;;;;0.14;73.24;101382.34;5016495;28;20145;-79
2022/03/03 01:19:43;;;;;;;26.50;17.42;;;;;;;0.06;72.96;101373.31;5017450;28;20125;-79
2022/03/03 01:22:10;;;;;;;25.58;15.80;;;;;;;-0.06;73.31;101375.56;5018308;28;20084;-79
2022/03/03 01:24:37;;;;;;;28.33;17.00;;;;;;;-0.14;74.08;101374.22;5017813;28;20114;-78
2022/03/03 01:27:04;;;;;;;32.67;17.05;;;;;;;-0.14;74.02;101374.22;5017864;28;20053;-79
2022/03/03 01:29:30;;;;;;;27.63;17.90;;;;;;;-0.14;74.33;101364.78;5017995;28;20109;-78
2022/03/03 01:31:58;;;;;;;30.45;16.75;;;;;;;-0.16;72.85;101365.75;5018199;28;20081;-80
2022/03/03 01:34:25;;;;;;;26.63;16.60;;;;;;;-0.19;72.45;101353.03;5017656;28;20046;-79
2022/03/03 01:36:51;;;;;;;25.15;15.73;;;;;;;-0.10;72.39;101362.91;5017517;28;20053;-79
2022/03/03 01:39:18;;;;;;;24.63;15.68;;;;;;;-0.10;73.41;101357.75;5017315;28;20088;-78
2022/03/03 01:41:45;;;;;;;25.52;16.55;;;;;;;-0.12;74.07;101357.00;5017600;28;20134;-79
2022/03/03 01:44:12;;;;;;;24.52;15.88;;;;;;;-0.11;73.12;101362.06;5017590;28;20076;-79
2022/03/03 01:46:49;;;;;;;27.27;17.60;;;;;;;-0.14;73.98;101358.81;5016990;28;20049;-79
2022/03/03 01:49:17;;;;;;;30.02;17.65;;;;;;;-0.22;74.49;101355.72;5016808;28;20046;-80
2022/03/03 01:51:44;;;;;;;28.42;17.60;;;;;;;-0.22;74.41;101350.59;5016827;28;20439;-79
2022/03/03 01:54:11;;;;;;;31.75;18.02;;;;;;;-0.28;73.61;101354.28;5017824;28;20160;-79
2022/03/03 01:56:38;;;;;;;25.38;16.52;;;;;;;-0.33;73.55;101351.06;5017210;28;20053;-79
2022/03/03 01:59:04;;;;;;;25.27;16.95;;;;;;;-0.38;74.01;101351.28;5016507;28;20050;-78
2022/03/03 02:01:32;;;;;;;28.02;16.17;;;;;;;-0.43;73.92;101342.94;5019332;28;20113;-77
2022/03/03 02:03:59;;;;;;;26.40;16.23;;;;;;;-0.47;74.50;101341.38;5020540;28;20122;-78
2022/03/03 02:06:27;;;;;;;27.05;17.75;;;;;;;-0.45;74.70;101334.44;5016923;28;20077;-78
2022/03/03 02:08:53;;;;;;;29.02;17.52;;;;;;;-0.51;74.78;101332.19;5016777;28;20057;-78
2022/03/03 02:11:21;;;;;;;25.60;16.48;;;;;;;-0.49;75.10;101332.09;5017336;28;20132;-78
2022/03/03 02:13:48;;;;;;;28.77;18.13;;;;;;;-0.54;74.53;101332.31;5017977;28;20400;-78
2022/03/03 02:16:14;;;;;;;25.40;16.55;;;;;;;-0.59;74.94;101335.97;5014509;28;20128;-78
2022/03/03 02:18:41;;;;;;;27.23;16.63;;;;;;;-0.68;74.19;101330.34;5017561;28;20042;-79
2022/03/03 02:21:12;;;;;;;28.70;16.83;;;;;;;-0.62;74.25;101330.97;5018048;28;20092;-79
2022/03/03 02:23:38;;;;;;;30.73;17.92;;;;;;;-0.55;74.01;101328.06;5027656;28;20133;-77
2022/03/03 02:26:06;;;;;;;27.35;16.73;;;;;;;-0.56;74.66;101339.25;5031538;28;20077;-78
2022/03/03 02:28:32;;;;;;;31.50;17.40;;;;;;;-0.60;75.50;101329.19;5030087;28;20077;-78
2022/03/03 02:30:59;;;;;;;33.47;17.45;;;;;;;-0.64;74.54;101328.47;5031698;28;20054;-78
2022/03/03 02:33:26;;;;;;;24.80;16.75;;;;;;;-0.64;74.95;101323.34;5016402;28;20050;-77
2022/03/03 02:35:52;;;;;;;25.40;16.63;;;;;;;-0.69;74.98;101318.38;5013713;28;20137;-77
2022/03/03 02:38:20;;;;;;;28.20;17.08;;;;;;;-0.77;75.53;101317.06;5013715;28;20066;-78
2022/03/03 02:40:47;;;;;;;26.45;15.65;;;;;;;-0.77;74.70;101309.34;5015904;28;20372;-78
2022/03/03 02:43:13;;;;;;;26.45;18.00;;;;;;;-0.80;75.34;101312.03;5015869;28;20054;-78
2022/03/03 02:45:40;;;;;;;28.42;17.75;;;;;;;-0.83;74.61;101318.16;5015702;28;20122;-77
2022/03/03 02:48:07;;;;;;;26.33;15.85;;;;;;;-0.75;74.70;101312.69;5016027;28;20416;-78
2022/03/03 02:50:33;;;;;;;26.80;16.83;;;;;;;-0.76;75.49;101318.72;5016972;28;20251;-79
2022/03/03 02:53:02;;;;;;;26.45;16.30;;;;;;;-0.81;75.55;101318.91;5017280;28;20054;-78
2022/03/03 02:55:30;;;;;;;26.80;17.42;;;;;;;-0.67;74.26;101303.75;5016595;28;20494;-77
2022/03/03 02:57:57;;;;;;;29.08;17.73;;;;;;;-0.64;73.92;101302.78;5015825;28;20110;-78
2022/03/03 03:00:26;;;;;;;29.33;16.55;;;;;;;-0.60;73.98;101294.03;5017816;28;20054;-78
2022/03/03 03:02:53;;;;;;;30.83;17.85;;;;;;;-0.57;73.88;101293.88;5017096;28;20100;-78
2022/03/03 03:05:20;;;;;;;29.00;17.50;;;;;;;-0.66;74.16;101289.16;5016994;28;20153;-78
2022/03/03 03:07:47;;;;;;;25.17;16.38;;;;;;;-0.72;74.49;101297.13;5017680;28;20478;-77
2022/03/03 03:10:14;;;;;;;25.90;16.15;;;;;;;-0.57;73.93;101291.31;5016202;28;20057;-78
2022/03/03 03:12:42;;;;;;;29.13;16.85;;;;;;;-0.62;73.76;101295.81;5017535;28;20136;-79
2022/03/03 03:15:09;;;;;;;28.73;17.20;;;;;;;-0.74;74.49;101292.06;5016864;28;20054;-79
2022/03/03 03:17:36;;;;;;;29.83;16.77;;;;;;;-0.88;76.36;101302.09;5017176;28;20052;-80
2022/03/03 03:20:04;;;;;;;31.40;17.35;;;;;;;-0.98;76.64;101297.44;5017428;28;20050;-80
2022/03/03 03:22:31;;;;;;;29.05;17.27;;;;;;;-1.04;75.84;101298.53;5017754;28;20145;-79
2022/03/03 03:24:57;;;;;;;31.33;16.60;;;;;;;-1.11;77.10;101297.97;5017370;28;20082;-80
2022/03/03 03:27:24;;;;;;;27.75;17.05;;;;;;;-1.15;76.92;101304.13;5017307;28;20129;-78
2022/03/03 03:29:52;;;;;;;30.02;16.73;;;;;;;-0.85;74.86;101299.41;5017425;28;20117;-78
2022/03/03 03:32:19;;;;;;;30.38;16.98;;;;;;;-0.67;73.96;101295.19;5017837;28;20142;-80
2022/03/03 03:34:45;;;;;;;30.02;17.20;;;;;;;-0.83;75.44;101297.59;5016663;28;20133;-78
2022/03/03 03:37:12;;;;;;;28.27;16.27;;;;;;;-0.87;76.84;101295.22;5016302;28;20084;-78
2022/03/03 03:39:39;;;;;;;26.95;16.90;;;;;;;-0.98;77.05;101289.75;5017831;28;20082;-79
2022/03/03 03:42:06;;;;;;;29.73;16.83;;;;;;;-1.14;76.99;101284.41;5020422;28;20049;-80
2022/03/03 03:44:32;;;;;;;28.75;17.48;;;;;;;-1.20;78.09;101275.25;5020094;28;20136;-79
2022/03/03 03:47:02;;;;;;;27.67;17.17;;;;;;;-1.21;78.04;101277.88;5020796;28;20508;-78
2022/03/03 03:49:29;;;;;;;28.35;17.48;;;;;;;-1.27;78.19;101278.13;5019070;28;20064;-80
2022/03/03 03:51:55;;;;;;;26.70;16.80;;;;;;;-1.31;78.79;101268.88;5019510;28;20054;-78
2022/03/03 03:54:22;;;;;;;26.35;17.35;;;;;;;-1.31;78.57;101274.84;5020113;28;20061;-77
2022/03/03 03:56:48;;;;;;;27.92;17.40;;;;;;;-1.37;78.44;101286.22;5016738;28;20057;-77
2022/03/03 03:59:15;;;;;;;27.52;16.52;;;;;;;-1.42;78.32;101277.06;5015997;28;20077;-77
2022/03/03 04:01:42;;;;;;;29.15;17.52;;;;;;;-1.37;77.96;101280.25;5016913;28;20103;-76
2022/03/03 04:04:10;;;;;;;25.63;16.00;;;;;;;-1.38;78.47;101279.41;5017144;28;20049;-77
2022/03/03 04:06:37;;;;;;;35.40;17.70;;;;;;;-1.41;78.56;101268.44;5017110;28;20054;-77
2022/03/03 04:09:03;;;;;;;28.88;16.98;;;;;;;-1.45;78.77;101272.88;5016620;28;20196;-78
2022/03/03 04:11:30;;;;;;;29.48;16.13;;;;;;;-1.47;78.46;101273.84;5018522;28;20077;-77
2022/03/03 04:13:58;;;;;;;26.30;16.67;;;;;;;-1.48;78.46;101265.31;5017365;28;20062;-77
2022/03/03 04:16:25;;;;;;;29.75;17.83;;;;;;;-1.48;78.47;101265.31;5017334;28;20133;-78
2022/03/03 04:18:52;;;;;;;29.05;17.58;;;;;;;-1.48;78.53;101256.78;5020070;28;20493;-78
2022/03/03 04:21:20;;;;;;;27.45;17.55;;;;;;;-1.53;79.36;101259.53;5016805;28;20685;-77
2022/03/03 04:23:47;;;;;;;29.33;17.38;;;;;;;-1.56;78.89;101261.41;5017463;28;20056;-78
2022/03/03 04:26:15;;;;;;;28.90;17.27;;;;;;;-1.58;79.49;101265.75;5020297;28;20132;-79
2022/03/03 04:28:41;;;;;;;28.00;16.63;;;;;;;-1.63;79.10;101252.28;5019672;28;20054;-78
2022/03/03 04:31:08;;;;;;;26.35;16.90;;;;;;;-1.58;78.21;101260.63;5020282;28;20108;-78
2022/03/03 04:33:35;;;;;;;31.17;18.50;;;;;;;-1.57;78.42;101259.72;5019946;28;20465;-78
2022/03/03 04:36:01;;;;;;;25.35;16.83;;;;;;;-1.64;78.16;101261.69;5021645;28;20312;-78
2022/03/03 04:38:29;;;;;;;28.95;16.45;;;;;;;-1.51;79.17;101262.03;5020102;28;20058;-78
2022/03/03 04:40:56;;;;;;;28.33;18.13;;;;;;;-1.53;79.17;101256.13;5020070;28;20050;-77
2022/03/03 04:43:23;;;;;;;27.98;17.10;;;;;;;-1.39;77.92;101256.38;5020092;28;20104;-78
2022/03/03 04:45:49;;;;;;;30.13;17.23;;;;;;;-1.41;78.03;101253.03;5019255;28;20089;-79
2022/03/03 04:48:16;;;;;;;28.23;16.77;;;;;;;-1.57;78.49;101260.56;5017955;28;20125;-78
2022/03/03 04:50:43;;;;;;;26.67;17.30;;;;;;;-1.61;78.47;101261.56;5017758;28;20132;-78
2022/03/03 04:53:09;;;;;;;28.33;17.33;;;;;;;-1.61;78.71;101253.88;5016788;28;20187;-78
2022/03/03 04:55:37;;;;;;;26.75;16.77;;;;;;;-1.59;79.35;101254.66;5016150;28;20093;-78
2022/03/03 04:58:04;;;;;;;32.25;17.42;;;;;;;-1.61;78.55;101242.78;5017229;28;20045;-78
2022/03/03 05:00:30;;;;;;;27.05;17.17;;;;;;;-1.63;79.19;101242.84;5018295;28;20516;-79
2022/03/03 05:02:57;;;;;;;27.42;17.08;;;;;;;-1.63;79.09;101236.88;5018556;28;20508;-78
2022/03/03 05:05:23;;;;;;;27.63;17.02;;;;;;;-1.64;79.33;101230.91;5018210;28;20132;-79
2022/03/03 05:07:50;;;;;;;27.73;17.92;;;;;;;-1.59;79.44;101234.13;5018158;28;20066;-77
2022/03/03 05:10:17;;;;;;;28.88;17.73;;;;;;;-1.62;79.39;101229.13;5018413;28;20109;-79
2022/03/03 05:12:45;;;;;;;30.98;17.88;;;;;;;-1.76;80.23;101237.38;5019146;28;20126;-78
2022/03/03 05:15:11;;;;;;;28.90;17.60;;;;;;;-1.80;80.12;101230.69;5019416;28;20054;-79
2022/03/03 05:17:38;;;;;;;29.27;16.88;;;;;;;-1.73;80.71;101216.72;5018288;28;20068;-78
2022/03/03 05:20:06;;;;;;;31.05;18.08;;;;;;;-1.72;80.79;101218.41;5017577;28;20128;-77
2022/03/03 05:22:32;;;;;;;29.30;17.63;;;;;;;-1.72;80.34;101218.41;5058980;23;20974;-84
2022/03/03 05:24:59;;;;;;;28.40;17.85;;;;;;;-1.69;80.60;101214.88;5012017;28;20110;-84
2022/03/03 05:27:25;;;;;;;30.15;18.40;;;;;;;-1.59;80.13;101217.88;5009448;28;20057;-83
2022/03/03 05:29:54;;;;;;;31.52;19.15;;;;;;;-1.59;80.23;101211.03;5009440;28;20051;-83
2022/03/03 05:32:21;;;;;;;68.57;37.67;;;;;;;-1.55;79.38;101209.16;5002857;28;20070;-84
2022/03/03 05:34:47;;;;;;;63.78;33.95;;;;;;;-1.50;79.20;101212.38;4997694;28;20054;-83
2022/03/03 05:37:15;;;;;;;63.65;35.95;;;;;;;-1.52;79.29;101209.03;4999511;28;20106;-83
2022/03/03 05:39:49;;;;;;;40.60;24.48;;;;;;;-1.55;79.14;101214.31;5001202;28;20070;-83
2022/03/03 05:42:25;;;;;;;70.38;37.42;;;;;;;-1.57;80.36;101210.97;5001290;28;20433;-84
2022/03/03 05:44:57;;;;;;;79.93;42.30;;;;;;;-1.59;79.84;101212.75;5004086;28;20046;-83
2022/03/03 05:47:31;;;;;;;30.05;19.10;;;;;;;-1.63;79.85;101213.78;5006583;28;20069;-85
2022/03/03 05:49:59;;;;;;;32.05;19.23;;;;;;;-1.61;79.86;101209.41;5004881;28;20285;-83
2022/03/03 05:52:29;;;;;;;31.23;17.83;;;;;;;-1.72;79.19;101215.00;5004114;28;20507;-86
2022/03/03 05:54:56;;;;;;;32.22;19.30;;;;;;;-1.68;79.44;101203.72;5023185;28;20496;-84
2022/03/03 05:57:28;;;;;;;34.92;20.25;;;;;;;-1.63;79.58;101204.34;5019626;28;20053;-85
2022/03/03 06:00:03;;;;;;;27.97;18.80;;;;;;;-1.64;79.36;101201.84;5017719;28;20072;-84
2022/03/03 06:02:29;;;;;;;27.27;18.23;;;;;;;-1.57;79.08;101211.78;5019675;28;20284;-85
2022/03/03 06:04:58;;;;;;;29.85;17.65;;;;;;;-1.57;79.01;101208.41;5018097;28;20432;-85
2022/03/03 06:07:26;;;;;;;33.90;17.77;;;;;;;-1.58;78.95;101210.13;5017453;28;20106;-86
2022/03/03 06:09:56;;;;;;;59.85;31.48;;;;;;;-1.70;79.25;101218.34;5016123;28;20050;-84
2022/03/03 06:12:27;;;;;;;62.67;35.65;;;;;;;-1.74;79.22;101206.53;5015921;28;21424;-84
2022/03/03 06:15:02;;;;;;;48.15;26.80;;;;;;;-1.79;79.68;101219.53;5016187;28;20393;-84
2022/03/03 06:17:30;;;;;;;33.35;21.20;;;;;;;-1.83;79.85;101219.72;5014837;28;20129;-85
2022/03/03 06:20:00;;;;;;;34.05;20.98;;;;;;;-1.82;80.25;101221.41;5017342;28;20096;-85
2022/03/03 06:22:26;;;;;;;38.90;22.23;;;;;;;-1.91;80.46;101220.06;5018129;28;20048;-85
2022/03/03 06:24:54;;;;;;;34.42;20.85;;;;;;;-1.91;80.77;101245.72;5019156;28;20101;-84
2022/03/03 06:27:21;;;;;;;38.13;19.42;;;;;;;-2.02;80.79;101227.34;5018041;28;20050;-85
2022/03/03 06:29:49;;;;;;;32.58;18.15;;;;;;;-2.00;80.90;101225.56;4993451;28;20047;-85
2022/03/03 06:32:17;;;;;;;36.65;18.90;;;;;;;-1.99;80.95;101227.22;4998645;28;20050;-84
2022/03/03 06:34:44;;;;;;;38.95;20.08;;;;;;;-1.96;81.60;101226.28;4999229;28;20078;-83
2022/03/03 06:37:10;;;;;;;33.70;19.02;;;;;;;-1.95;81.39;101236.47;4998288;28;20061;-84
2022/03/03 06:39:37;;;;;;;38.00;18.60;;;;;;;-1.90;81.19;101232.00;4999810;28;20081;-84
2022/03/03 06:42:04;;;;;;;41.30;19.65;;;;;;;-1.87;81.62;101229.28;4994560;28;20050;-85
2022/03/03 06:44:31;;;;;;;38.10;19.58;;;;;;;-1.73;81.30;101227.00;4999966;28;20050;-85
2022/03/03 06:46:57;;;;;;;45.53;22.23;;;;;;;-1.73;80.68;101227.00;5001340;28;20086;-85
2022/03/03 06:49:26;;;;;;;73.78;45.35;;;;;;;-1.62;80.76;101228.28;4994088;28;20484;-86
2022/03/03 06:51:56;;;;;;;81.95;47.10;;;;;;;-1.61;79.89;101227.38;4999730;28;20118;-86
2022/03/03 06:54:24;;;;;;;45.70;28.08;;;;;;;-1.56;80.23;101228.03;5002533;28;20106;-86
2022/03/03 06:56:53;;;;;;;36.05;21.42;;;;;;;-1.34;79.60;101233.91;4999290;28;20051;-84
2022/03/03 06:59:21;;;;;;;37.85;19.65;;;;;;;-1.19;78.33;101238.38;4997495;28;20058;-84
2022/03/03 07:01:49;;;;;;;36.47;19.55;;;;;;;-1.08;78.13;101240.50;5000128;28;20050;-85
2022/03/03 07:04:18;;;;;;;31.05;17.95;;;;;;;-0.81;76.84;101238.44;5003934;28;20042;-84
2022/03/03 07:06:48;;;;;;;28.77;17.60;;;;;;;-0.49;74.52;101239.56;5005307;28;20054;-83
2022/03/03 07:09:15;;;;;;;36.50;17.20;;;;;;;0.41;73.80;101248.91;5008256;28;20078;-84
2022/03/03 07:11:44;;;;;;;39.20;19.05;;;;;;;1.49;69.08;101245.00;5008404;28;20050;-85
2022/03/03 07:14:11;;;;;;;30.83;16.83;;;;;;;2.35;66.13;101236.72;5006880;28;20050;-86
2022/03/03 07:16:41;;;;;;;29.27;16.70;;;;;;;2.78;63.71;101232.44;5010173;28;20109;-84
2022/03/03 07:19:18;;;;;;;30.63;16.52;;;;;;;2.86;62.40;101231.97;5011896;28;20070;-84
2022/03/03 07:22:02;;;;;;;31.00;16.63;;;;;;;3.21;60.80;101220.31;5008690;28;20042;-83
2022/03/03 07:24:37;;;;;;;29.05;17.48;;;;;;;3.33;60.10;101229.06;5006327;28;20058;-83
2022/03/03 07:27:05;;;;;;;35.40;19.42;;;;;;;3.29;60.80;101236.22;5000133;28;20120;-84
2022/03/03 07:29:34;;;;;;;30.65;17.83;;;;;;;3.25;59.91;101228.72;5006609;28;20054;-84
2022/03/03 07:32:06;;;;;;;30.30;16.58;;;;;;;3.04;60.04;101219.69;5005036;28;20196;-83
2022/03/03 07:34:35;;;;;;;22.00;12.35;;;;;;;3.13;60.26;101232.88;5005161;28;20137;-84
2022/03/03 07:37:07;;;;;;;37.15;16.67;;;;;;;3.24;58.85;101222.72;5003454;28;20148;-83
2022/03/03 07:39:42;;;;;;;33.00;17.08;;;;;;;3.41;58.74;101228.59;5003640;28;20129;-84
2022/03/03 07:42:13;;;;;;;21.85;16.08;;;;;;;3.47;57.55;101216.09;5005432;28;20052;-83
2022/03/03 07:44:39;;;;;;;23.40;15.40;;;;;;;4.09;56.21;101231.16;5005436;28;20272;-83
2022/03/03 07:47:08;;;;;;;38.15;16.52;;;;;;;3.34;58.56;101228.13;4993409;28;20045;-84
2022/03/03 07:49:35;;;;;;;31.15;17.08;;;;;;;3.81;57.04;101242.44;5004159;28;20146;-84
2022/03/03 07:52:06;;;;;;;26.17;16.75;;;;;;;3.30;58.33;101232.69;5007350;28;20050;-83
2022/03/03 07:54:35;;;;;;;29.23;17.13;;;;;;;3.59;57.04;101237.81;5005546;28;20101;-83
2022/03/03 07:57:04;;;;;;;25.55;16.17;;;;;;;3.67;57.93;101253.69;5004933;28;20476;-83
2022/03/03 07:59:34;;;;;;;32.40;17.27;;;;;;;4.32;56.90;101249.41;5004860;28;20046;-84
2022/03/03 08:02:02;;;;;;;26.17;16.75;;;;;;;4.38;55.67;101247.34;5005064;28;20173;-82
2022/03/03 08:04:33;;;;;;;24.58;16.92;;;;;;;4.45;55.92;101253.78;5006168;28;20484;-85
2022/03/03 08:07:05;;;;;;;25.27;16.58;;;;;;;3.80;57.41;101251.13;5009109;28;20050;-83
2022/03/03 08:09:32;;;;;;;28.23;16.80;;;;;;;4.14;56.68;101255.81;5011481;28;20117;-83
2022/03/03 08:12:05;;;;;;;24.98;16.85;;;;;;;4.05;57.74;101250.41;5012903;28;20145;-84
2022/03/03 08:14:32;;;;;;;22.48;15.40;;;;;;;4.57;55.92;101248.63;5004554;28;20097;-83
2022/03/03 08:16:59;;;;;;;23.33;16.17;;;;;;;4.50;56.39;101243.97;5020726;28;20077;-84
2022/03/03 08:19:25;;;;;;;24.88;16.05;;;;;;;5.06;56.32;101241.88;5023565;28;20046;-84
2022/03/03 08:21:52;;;;;;;26.80;17.98;;;;;;;4.93;55.80;101237.53;5024447;28;20079;-83
2022/03/03 08:24:19;;;;;;;28.65;16.38;;;;;;;4.94;55.19;101240.97;5008493;28;20077;-83
2022/03/03 08:26:46;;;;;;;29.08;16.20;;;;;;;5.07;55.87;101244.38;5008837;28;20053;-84
2022/03/03 08:29:15;;;;;;;24.42;15.98;;;;;;;4.81;54.72;101246.13;5022605;28;20092;-84
2022/03/03 08:31:43;;;;;;;29.02;15.88;;;;;;;5.17;54.17;101250.59;5027053;28;20102;-84
2022/03/03 08:34:16;;;;;;;24.38;16.02;;;;;;;5.27;54.68;101248.16;5031968;28;20100;-84
2022/03/03 08:36:47;;;;;;;22.98;15.57;;;;;;;5.26;54.21;101251.69;5020780;28;20046;-84
2022/03/03 08:39:16;;;;;;;27.20;16.77;;;;;;;5.47;53.74;101249.38;5031436;28;20056;-84
2022/03/03 08:41:44;;;;;;;26.02;15.77;;;;;;;5.76;51.63;101249.88;5031991;28;20045;-84
2022/03/03 08:44:12;;;;;;;25.75;15.75;;;;;;;5.42;53.26;101256.66;5018801;28;20489;-84
2022/03/03 08:46:44;;;;;;;28.42;16.02;;;;;;;5.78;52.37;101254.03;5029124;28;20042;-85
2022/03/03 08:49:12;;;;;;;22.17;15.52;;;;;;;5.55;52.17;101242.72;5018070;28;20091;-85
2022/03/03 08:51:43;;;;;;;23.13;16.10;;;;;;;5.28;52.76;101245.47;5017727;28;20081;-83
2022/03/03 08:54:11;;;;;;;25.08;15.98;;;;;;;5.16;52.63;101250.69;5018555;28;20050;-83
2022/03/03 08:56:37;;;;;;;22.90;16.77;;;;;;;5.25;52.95;101237.06;5017985;28;20358;-84
2022/03/03 08:59:04;;;;;;;24.15;16.10;;;;;;;6.24;50.75;101248.97;5016554;28;20053;-83
2022/03/03 09:01:34;;;;;;;23.27;15.70;;;;;;;6.06;51.91;101245.13;5018001;28;20057;-83
2022/03/03 09:04:02;;;;;;;22.40;15.88;;;;;;;5.88;51.10;101239.47;5017310;28;20046;-85
2022/03/03 09:06:29;;;;;;;24.80;15.35;;;;;;;5.99;51.15;101230.91;5018114;28;20077;-85
2022/03/03 09:08:55;;;;;;;25.67;16.13;;;;;;;5.85;49.88;101241.44;5016937;28;20123;-84
2022/03/03 09:11:22;;;;;;;22.98;15.38;;;;;;;5.53;50.18;101239.41;5018669;28;20456;-84
2022/03/03 09:13:49;;;;;;;28.83;16.30;;;;;;;5.51;50.56;101237.84;5018436;28;20508;-84
2022/03/03 09:16:21;;;;;;;25.17;15.55;;;;;;;5.46;49.70;101248.56;5018431;28;20077;-84
2022/03/03 09:18:54;;;;;;;21.03;15.13;;;;;;;5.17;50.36;101221.22;5019649;28;20058;-86
2022/03/03 09:21:38;;;;;;;25.40;16.17;;;;;;;5.23;49.17;101226.78;5020289;28;20744;-86
2022/03/03 09:24:06;;;;;;;24.17;16.05;;;;;;;5.48;48.87;101246.69;5018244;28;20057;-84
2022/03/03 09:26:35;;;;;;;29.23;17.98;;;;;;;5.17;49.29;101216.88;5017965;28;20078;-84
2022/03/03 09:29:02;;;;;;;29.70;19.88;;;;;;;5.48;49.37;101236.28;5018768;28;20046;-84
2022/03/03 09:31:28;;;;;;;26.63;16.33;;;;;;;5.49;48.76;101231.94;5018332;28;20073;-84
2022/03/03 09:33:55;;;;;;;25.15;15.32;;;;;;;5.36;49.47;101216.38;5017656;28;20483;-84
2022/03/03 09:36:22;;;;;;;21.88;14.65;;;;;;;5.54;49.00;101230.66;5019328;28;20168;-85
2022/03/03 09:38:50;;;;;;;23.63;15.93;;;;;;;5.67;49.16;101241.81;5019061;28;20117;-82
2022/03/03 09:41:17;;;;;;;23.98;16.73;;;;;;;5.68;48.19;101227.91;5022791;28;20049;-82
2022/03/03 09:43:44;;;;;;;27.30;16.90;;;;;;;5.80;49.09;101241.78;5029951;28;20050;-84
2022/03/03 09:46:12;;;;;;;44.80;17.45;;;;;;;5.89;49.49;101229.94;5019313;28;20103;-84
2022/03/03 09:48:38;;;;;;;28.63;17.95;;;;;;;5.84;48.64;101229.41;5015843;28;20046;-84
2022/03/03 09:51:05;;;;;;;31.55;16.33;;;;;;;6.06;49.46;101206.16;5016168;28;20074;-84
2022/03/03 09:53:33;;;;;;;31.25;17.67;;;;;;;6.20;48.15;101212.91;5017241;28;20050;-84
2022/03/03 09:56:01;;;;;;;26.98;16.55;;;;;;;6.07;47.44;101194.81;5015617;28;20156;-85
2022/03/03 09:58:27;;;;;;;28.23;16.90;;;;;;;6.22;48.61;101214.44;5015168;28;20551;-84
2022/03/03 10:00:57;;;;;;;23.85;16.02;;;;;;;6.40;48.24;101212.25;5022273;28;20057;-83
2022/03/03 10:03:24;;;;;;;25.30;16.33;;;;;;;6.51;47.84;101207.09;5020390;28;20054;-85
2022/03/03 10:05:52;;;;;;;22.33;16.55;;;;;;;6.71;48.09;101207.34;5021384;28;20140;-86
2022/03/03 10:08:21;;;;;;;24.77;16.83;;;;;;;6.56;47.30;101204.16;5020644;28;20477;-85
2022/03/03 10:10:49;;;;;;;23.83;16.52;;;;;;;6.73;46.88;101205.44;5021361;28;20076;-84
2022/03/03 10:13:18;;;;;;;30.30;16.73;;;;;;;6.74;47.20;101205.34;5019904;28;20065;-84
2022/03/03 10:15:47;;;;;;;23.45;16.70;;;;;;;6.93;47.45;101196.94;5018718;28;20099;-85
2022/03/03 10:18:16;;;;;;;25.75;16.80;;;;;;;7.02;46.27;101200.63;5017442;28;20049;-86
2022/03/03 10:20:50;;;;;;;25.40;16.88;;;;;;;7.27;45.92;101208.97;5018379;28;20469;-84
2022/03/03 10:23:18;;;;;;;24.90;17.25;;;;;;;7.44;45.67;101218.06;5018436;28;20520;-82
2022/03/03 10:25:46;;;;;;;28.27;16.95;;;;;;;7.50;45.65;101217.59;5026021;28;20045;-85
2022/03/03 10:28:20;;;;;;;28.52;17.00;;;;;;;7.20;45.72;101220.81;5017701;28;20081;-84
2022/03/03 10:31:01;;;;;;;29.85;16.48;;;;;;;7.41;44.61;101220.91;5019935;28;20100;-85
2022/03/03 10:33:30;;;;;;;25.63;16.50;;;;;;;7.52;45.13;101215.69;5020402;28;20155;-86
2022/03/03 10:36:01;;;;;;;20.95;16.08;;;;;;;7.55;44.00;101207.63;5021499;28;20113;-84
2022/03/03 10:38:29;;;;;;;21.95;16.50;;;;;;;7.78;43.84;101204.94;5020325;28;20084;-84
2022/03/03 10:40:56;;;;;;;23.23;16.20;;;;;;;7.54;43.24;101207.75;5020178;28;20049;-85
2022/03/03 10:43:24;;;;;;;21.15;15.90;;;;;;;7.59;42.89;101203.81;5023862;28;20057;-85
2022/03/03 10:45:55;;;;;;;27.75;17.23;;;;;;;7.75;43.42;101199.97;5021593;28;20564;-85
2022/03/03 10:48:23;;;;;;;25.40;16.55;;;;;;;7.77;42.57;101196.31;5017589;28;20085;-85
2022/03/03 10:50:51;;;;;;;27.33;16.65;;;;;;;7.93;42.52;101195.91;5019277;28;20277;-86
2022/03/03 10:53:19;;;;;;;23.50;15.95;;;;;;;8.14;42.98;101190.69;5016571;28;20049;-87
2022/03/03 10:56:05;;;;;;;31.00;17.65;;;;;;;8.07;42.70;101198.19;5018147;28;20053;-87
2022/03/03 10:58:55;;;;;;;26.42;16.50;;;;;;;8.14;42.29;101177.66;5018510;28;20060;-86
2022/03/03 11:01:24;;;;;;;25.70;17.33;;;;;;;8.23;41.94;101172.50;5017501;28;20052;-86
2022/03/03 11:03:51;;;;;;;24.70;16.15;;;;;;;8.28;41.64;101172.94;5017970;28;20081;-86
2022/03/03 11:06:19;;;;;;;23.95;16.85;;;;;;;8.44;42.02;101185.56;5019090;28;20050;-85
2022/03/03 11:08:48;;;;;;;26.42;16.00;;;;;;;8.24;40.26;101171.56;5018923;28;20084;-86
2022/03/03 11:11:15;;;;;;;22.88;16.50;;;;;;;8.56;41.30;101175.88;5018305;28;20061;-85
2022/03/03 11:13:53;;;;;;;38.65;15.65;;;;;;;8.68;40.82;101174.84;5019963;28;20061;-87
2022/03/03 11:16:22;;;;;;;25.30;16.60;;;;;;;8.74;40.38;101170.88;5017540;28;20057;-83